| time (UTC) | temp C | wind direction | speed KPH | gust KPH | rain 1hr cm | rain 24hr cm | rain mn cm | humidity % | barometer mb |
| 20260507123520 | 11 | 283 | 19.3 | 30.6 | 0.00 | 0.00 | 0.00 | 77 | 1013.0 |
| 20260507122535 | 13 | 272 | 20.9 | 38.6 | 0.00 | 0.00 | 0.00 | 74 | 1013.0 |
| 20260507121528 | 14 | 290 | 3.2 | 6.4 | 0.00 | 0.00 | 0.00 | 68 | 1013.0 |
| 20260507120523 | 15 | 225 | 1.6 | 6.4 | 0.00 | 0.00 | 0.00 | 68 | 1013.2 |
| 20260507115538 | 13 | 193 | 0.0 | 1.6 | 0.00 | 0.00 | 0.00 | 69 | 1013.3 |
| 20260507114552 | 13 | 208 | 3.2 | 6.4 | 0.00 | 0.00 | 0.00 | 72 | 1013.3 |
| 20260507113546 | 13 | 172 | 3.2 | 4.8 | 0.00 | 0.00 | 0.00 | 69 | 1013.5 |
| 20260507112520 | 13 | 117 | 4.8 | 11.3 | 0.00 | 0.00 | 0.00 | 68 | 1013.6 |
| 20260507111535 | 13 | 121 | 8.0 | 16.1 | 0.00 | 0.00 | 0.00 | 66 | 1013.6 |
| 20260507110529 | 13 | 109 | 11.3 | 17.7 | 0.00 | 0.00 | 0.00 | 66 | 1013.6 |
| 20260507105525 | 13 | 128 | 9.7 | 17.7 | 0.00 | 0.00 | 0.00 | 64 | 1013.7 |
| 20260507104517 | 14 | 126 | 9.7 | 16.1 | 0.00 | 0.00 | 0.00 | 65 | 1013.6 |
| 20260507103531 | 14 | 121 | 11.3 | 20.9 | 0.00 | 0.00 | 0.00 | 64 | 1013.7 |
| 20260507102547 | 14 | 115 | 12.9 | 22.5 | 0.00 | 0.00 | 0.00 | 64 | 1013.7 |
| 20260507101540 | 13 | 105 | 12.9 | 22.5 | 0.00 | 0.00 | 0.00 | 65 | 1013.7 |
| 20260507100534 | 13 | 104 | 8.0 | 17.7 | 0.00 | 0.00 | 0.00 | 67 | 1013.8 |
| 20260507095531 | 13 | 109 | 12.9 | 24.1 | 0.00 | 0.00 | 0.00 | 66 | 1013.8 |
| 20260507094523 | 12 | 136 | 9.7 | 17.7 | 0.00 | 0.00 | 0.00 | 69 | 1014.0 |
| 20260507093517 | 12 | 127 | 9.7 | 16.1 | 0.00 | 0.00 | 0.00 | 72 | 1014.0 |
| 20260507092531 | 12 | 119 | 9.7 | 17.7 | 0.00 | 0.00 | 0.00 | 73 | 1013.7 |
| 20260507091546 | 12 | 101 | 9.7 | 22.5 | 0.00 | 0.00 | 0.00 | 75 | 1013.3 |
| 20260507090519 | 11 | 96 | 11.3 | 20.9 | 0.00 | 0.00 | 0.00 | 76 | 1013.2 |
| 20260507085533 | 11 | 97 | 14.5 | 24.1 | 0.00 | 0.00 | 0.00 | 76 | 1013.1 |
| 20260507084528 | 11 | 87 | 14.5 | 27.4 | 0.00 | 0.00 | 0.00 | 78 | 1013.1 |
| 20260507083523 | 10 | 119 | 14.5 | 24.1 | 0.00 | 0.00 | 0.00 | 81 | 1013.0 |
| 20260507082517 | 10 | 122 | 17.7 | 27.4 | 0.00 | 0.00 | 0.00 | 82 | 1012.6 |
| 20260507081551 | 10 | 107 | 17.7 | 30.6 | 0.00 | 0.00 | 0.00 | 82 | 1012.4 |
| 20260507080524 | 10 | 98 | 16.1 | 27.4 | 0.00 | 0.00 | 0.00 | 78 | 1012.6 |
| 20260507075519 | 10 | 93 | 17.7 | 27.4 | 0.00 | 0.00 | 0.00 | 79 | 1012.9 |
| 20260507074554 | 11 | 117 | 12.9 | 22.5 | 0.00 | 0.00 | 0.00 | 78 | 1013.1 |
| 20260507073527 | 11 | 113 | 11.3 | 16.1 | 0.00 | 0.00 | 0.00 | 75 | 1013.3 |
| 20260507072603 | 11 | 109 | 11.3 | 20.9 | 0.00 | 0.00 | 0.00 | 74 | 1013.3 |
| 20260507071535 | 11 | 105 | 8.0 | 14.5 | 0.00 | 0.00 | 0.00 | 76 | 1013.2 |
| 20260507070529 | 11 | 107 | 6.4 | 16.1 | 0.00 | 0.00 | 0.00 | 77 | 1013.2 |
| 20260507065523 | 11 | 111 | 6.4 | 11.3 | 0.00 | 0.00 | 0.00 | 78 | 1013.3 |
| 20260507064517 | 11 | 104 | 4.8 | 11.3 | 0.00 | 0.00 | 0.00 | 78 | 1013.3 |
| 20260507063531 | 10 | 87 | 4.8 | 11.3 | 0.00 | 0.00 | 0.00 | 80 | 1013.1 |
| 20260507062525 | 10 | 67 | 4.8 | 6.4 | 0.00 | 0.00 | 0.00 | 80 | 1013.1 |
| 20260507061603 | 10 | 92 | 3.2 | 6.4 | 0.00 | 0.00 | 0.00 | 80 | 1013.1 |
| 20260507060536 | 10 | 121 | 1.6 | 3.2 | 0.00 | 0.00 | 0.00 | 82 | 1013.1 |
| 20260507055530 | 9 | 100 | 1.6 | 3.2 | 0.00 | 0.00 | 0.00 | 82 | 1013.0 |
| 20260507054524 | 9 | 82 | 3.2 | 6.4 | 0.00 | 0.00 | 0.00 | 82 | 1012.6 |
| 20260507053538 | 9 | 82 | 4.8 | 11.3 | 0.00 | 0.00 | 0.00 | 82 | 1012.6 |
| 20260507052533 | 8 | 82 | 4.8 | 9.7 | 0.00 | 0.00 | 0.00 | 82 | 1012.5 |
| 20260507051526 | 8 | 81 | 6.4 | 9.7 | 0.00 | 0.00 | 0.00 | 83 | 1012.4 |
| 20260507050520 | 8 | 74 | 8.0 | 11.3 | 0.00 | 0.00 | 0.00 | 83 | 1012.2 |
| 20260507045534 | 8 | 70 | 8.0 | 12.9 | 0.00 | 0.00 | 0.00 | 83 | 1012.2 |
| 20260507044551 | 8 | 78 | 6.4 | 11.3 | 0.00 | 0.00 | 0.00 | 84 | 1012.2 |
| 20260507043523 | 8 | 72 | 4.8 | 6.4 | 0.00 | 0.00 | 0.00 | 84 | 1012.2 |
| 20260507042519 | 8 | 62 | 6.4 | 12.9 | 0.00 | 0.00 | 0.00 | 83 | 1012.3 |
| 20260507041532 | 8 | 63 | 6.4 | 9.7 | 0.00 | 0.00 | 0.00 | 83 | 1012.3 |
| 20260507040528 | 9 | 61 | 6.4 | 11.3 | 0.00 | 0.00 | 0.00 | 81 | 1012.3 |
| 20260507035520 | 9 | 72 | 9.7 | 14.5 | 0.00 | 0.00 | 0.00 | 81 | 1012.4 |
| 20260507034535 | 9 | 71 | 11.3 | 16.1 | 0.00 | 0.00 | 0.00 | 81 | 1012.3 |
| 20260507033550 | 9 | 77 | 9.7 | 16.1 | 0.00 | 0.00 | 0.00 | 81 | 1012.4 |
| 20260507032544 | 9 | 74 | 9.7 | 14.5 | 0.00 | 0.00 | 0.00 | 81 | 1012.4 |
| 20260507031537 | 9 | 79 | 8.0 | 12.9 | 0.00 | 0.00 | 0.00 | 81 | 1012.5 |
| 20260507030533 | 9 | 77 | 6.4 | 12.9 | 0.00 | 0.00 | 0.00 | 81 | 1012.7 |
| 20260507025552 | 10 | 89 | 8.0 | 12.9 | 0.00 | 0.00 | 0.00 | 80 | 1012.6 |
| 20260507024523 | 10 | 80 | 8.0 | 14.5 | 0.00 | 0.00 | 0.00 | 80 | 1012.7 |
| 20260507023516 | 10 | 91 | 8.0 | 14.5 | 0.00 | 0.00 | 0.00 | 80 | 1012.6 |
| 20260507022531 | 10 | 84 | 8.0 | 16.1 | 0.00 | 0.00 | 0.00 | 80 | 1012.5 |
| 20260507021527 | 10 | 83 | 8.0 | 14.5 | 0.00 | 0.00 | 0.00 | 79 | 1012.7 |
| 20260507020521 | 10 | 73 | 9.7 | 16.1 | 0.00 | 0.00 | 0.00 | 79 | 1012.7 |
| 20260507015557 | 10 | 80 | 9.7 | 14.5 | 0.00 | 0.00 | 0.00 | 79 | 1012.7 |
| 20260507014531 | 11 | 100 | 8.0 | 16.1 | 0.00 | 0.00 | 0.00 | 79 | 1012.7 |
| 20260507013523 | 11 | 83 | 8.0 | 12.9 | 0.00 | 0.00 | 0.00 | 78 | 1012.9 |
| 20260507012518 | 11 | 99 | 9.7 | 16.1 | 0.00 | 0.00 | 0.00 | 77 | 1012.9 |
| 20260507011531 | 11 | 85 | 9.7 | 16.1 | 0.00 | 0.00 | 0.00 | 77 | 1012.9 |
| 20260507010525 | 11 | 84 | 9.7 | 17.7 | 0.00 | 0.00 | 0.00 | 77 | 1012.9 |
| 20260507005521 | 11 | 85 | 9.7 | 14.5 | 0.00 | 0.00 | 0.00 | 77 | 1013.0 |
| 20260507004535 | 11 | 86 | 11.3 | 22.5 | 0.00 | 0.00 | 0.00 | 77 | 1013.1 |
| 20260507003529 | 11 | 92 | 11.3 | 22.5 | 0.00 | 0.00 | 0.00 | 77 | 1013.1 |
| 20260507002525 | 11 | 91 | 11.3 | 20.9 | 0.00 | 0.00 | 0.00 | 77 | 1013.0 |
| 20260507001517 | 11 | 98 | 11.3 | 20.9 | 0.00 | 0.00 | 0.00 | 76 | 1013.2 |
| 20260507000612 | 11 | 95 | 14.5 | 24.1 | 0.00 | 0.00 | 0.00 | 76 | 1013.2 |
| 20260506235526 | 11 | 81 | 12.9 | 25.7 | 0.00 | 0.00 | 0.00 | 76 | 1013.2 |
| 20260506234541 | 11 | 79 | 9.7 | 20.9 | 0.00 | 0.00 | 0.00 | 76 | 1013.2 |
| 20260506233535 | 11 | 78 | 11.3 | 20.9 | 0.00 | 0.00 | 0.00 | 77 | 1013.3 |
| 20260506232528 | 11 | 85 | 11.3 | 22.5 | 0.00 | 0.00 | 0.00 | 77 | 1013.3 |
| 20260506231545 | 11 | 100 | 12.9 | 24.1 | 0.00 | 0.00 | 0.00 | 78 | 1013.4 |
| 20260506230518 | 11 | 76 | 14.5 | 25.7 | 0.00 | 0.00 | 0.00 | 79 | 1013.4 |
| 20260506225532 | 11 | 89 | 11.3 | 22.5 | 0.00 | 0.00 | 0.00 | 80 | 1013.4 |
| 20260506224547 | 11 | 98 | 12.9 | 25.7 | 0.00 | 0.00 | 0.00 | 81 | 1013.2 |
| 20260506223521 | 11 | 87 | 12.9 | 22.5 | 0.00 | 0.00 | 0.00 | 81 | 1013.3 |
| 20260506222537 | 11 | 97 | 9.7 | 20.9 | 0.00 | 0.00 | 0.00 | 80 | 1013.4 |
| 20260506221529 | 11 | 107 | 8.0 | 16.1 | 0.00 | 0.00 | 0.00 | 81 | 1013.3 |
| 20260506220523 | 11 | 108 | 6.4 | 11.3 | 0.00 | 0.00 | 0.00 | 81 | 1013.2 |
| 20260506215518 | 11 | 97 | 9.7 | 17.7 | 0.00 | 0.00 | 0.00 | 81 | 1013.2 |
| 20260506214532 | 11 | 100 | 8.0 | 14.5 | 0.00 | 0.00 | 0.00 | 80 | 1013.3 |
| 20260506213607 | 11 | 105 | 8.0 | 12.9 | 0.00 | 0.00 | 0.00 | 81 | 1013.2 |
| 20260506212541 | 11 | 108 | 6.4 | 12.9 | 0.00 | 0.00 | 0.00 | 81 | 1013.1 |
| 20260506211516 | 12 | 94 | 6.4 | 12.9 | 0.00 | 0.00 | 0.00 | 81 | 1013.0 |
| 20260506210552 | 12 | 96 | 8.0 | 14.5 | 0.00 | 0.00 | 0.00 | 81 | 1012.8 |
| 20260506205525 | 12 | 111 | 8.0 | 16.1 | 0.00 | 0.00 | 0.00 | 81 | 1012.5 |
| 20260506204520 | 12 | 107 | 8.0 | 12.9 | 0.00 | 0.00 | 0.00 | 80 | 1012.5 |
| 20260506203535 | 13 | 101 | 9.7 | 17.7 | 0.00 | 0.00 | 0.00 | 78 | 1012.3 |
| 20260506202529 | 13 | 108 | 9.7 | 16.1 | 0.00 | 0.00 | 0.00 | 76 | 1012.2 |
| 20260506201543 | 13 | 120 | 9.7 | 14.5 | 0.00 | 0.00 | 0.00 | 75 | 1012.1 |
| 20260506200538 | 13 | 98 | 11.3 | 20.9 | 0.00 | 0.00 | 0.00 | 74 | 1011.9 |
| 20260506195533 | 14 | 113 | 11.3 | 22.5 | 0.00 | 0.00 | 0.00 | 73 | 1011.7 |
| 20260506194546 | 14 | 106 | 12.9 | 20.9 | 0.00 | 0.00 | 0.00 | 71 | 1011.5 |
| 20260506193520 | 14 | 96 | 11.3 | 27.4 | 0.00 | 0.00 | 0.00 | 70 | 1011.3 |
| 20260506192534 | 14 | 117 | 9.7 | 17.7 | 0.00 | 0.00 | 0.00 | 65 | 1011.3 |
| 20260506191531 | 16 | 115 | 4.8 | 17.7 | 0.00 | 0.00 | 0.00 | 43 | 1011.1 |
| 20260506190524 | 17 | 136 | 3.2 | 6.4 | 0.00 | 0.00 | 0.00 | 38 | 1011.0 |
| 20260506185516 | 18 | 144 | 0.0 | 1.6 | 0.00 | 0.00 | 0.00 | 35 | 1010.9 |
| 20260506184531 | 19 | 144 | 0.0 | 1.6 | 0.00 | 0.00 | 0.00 | 33 | 1010.9 |
| 20260506183526 | 19 | 144 | 0.0 | 1.6 | 0.00 | 0.00 | 0.00 | 32 | 1010.7 |
| 20260506182520 | 19 | 135 | 0.0 | 3.2 | 0.00 | 0.00 | 0.00 | 32 | 1010.7 |
| 20260506181535 | 19 | 209 | 1.6 | 6.4 | 0.00 | 0.00 | 0.00 | 32 | 1010.6 |
| 20260506180530 | 20 | 250 | 3.2 | 6.4 | 0.00 | 0.00 | 0.00 | 32 | 1010.7 |
| 20260506175545 | 20 | 275 | 3.2 | 4.8 | 0.00 | 0.00 | 0.00 | 32 | 1010.7 |
| 20260506174517 | 20 | 272 | 0.0 | 1.6 | 0.00 | 0.00 | 0.00 | 30 | 1010.8 |
| 20260506173532 | 20 | 222 | 4.8 | 9.7 | 0.00 | 0.00 | 0.00 | 32 | 1010.7 |
| 20260506172528 | 20 | 104 | 1.6 | 3.2 | 0.00 | 0.00 | 0.00 | 32 | 1010.8 |
| 20260506171521 | 19 | 105 | 1.6 | 3.2 | 0.00 | 0.00 | 0.00 | 33 | 1010.8 |
| 20260506170535 | 20 | 158 | 3.2 | 6.4 | 0.00 | 0.00 | 0.00 | 32 | 1010.8 |
| 20260506165529 | 19 | 212 | 4.8 | 6.4 | 0.00 | 0.00 | 0.00 | 32 | 1010.9 |
| 20260506164523 | 20 | 215 | 3.2 | 11.3 | 0.00 | 0.00 | 0.00 | 32 | 1011.1 |
| 20260506163519 | 19 | 260 | 4.8 | 9.7 | 0.00 | 0.00 | 0.00 | 33 | 1011.0 |
| 20260506162532 | 18 | 282 | 3.2 | 9.7 | 0.00 | 0.00 | 0.00 | 34 | 1011.0 |
| 20260506161527 | 18 | 336 | 1.6 | 3.2 | 0.00 | 0.00 | 0.00 | 34 | 1011.0 |
| 20260506160521 | 19 | 79 | 1.6 | 4.8 | 0.00 | 0.00 | 0.00 | 34 | 1010.9 |
| 20260506155535 | 18 | 35 | 3.2 | 3.2 | 0.00 | 0.00 | 0.00 | 35 | 1011.1 |
| 20260506154531 | 17 | 329 | 3.2 | 4.8 | 0.00 | 0.00 | 0.00 | 37 | 1011.1 |
| 20260506153529 | 17 | 255 | 1.6 | 3.2 | 0.00 | 0.00 | 0.00 | 39 | 1011.1 |
| 20260506152519 | 18 | 208 | 1.6 | 3.2 | 0.00 | 0.00 | 0.00 | 35 | 1011.0 |
| 20260506151534 | 18 | 192 | 3.2 | 6.4 | 0.00 | 0.00 | 0.00 | 35 | 1011.2 |
| 20260506150527 | 18 | 215 | 3.2 | 6.4 | 0.00 | 0.00 | 0.00 | 35 | 1011.4 |
| 20260506145522 | 17 | 243 | 6.4 | 9.7 | 0.00 | 0.00 | 0.00 | 36 | 1011.5 |
| 20260506144536 | 18 | 217 | 6.4 | 9.7 | 0.00 | 0.00 | 0.00 | 35 | 1011.5 |
| 20260506143530 | 19 | 211 | 8.0 | 16.1 | 0.00 | 0.00 | 0.00 | 35 | 1011.5 |
| 20260506142524 | 18 | 173 | 3.2 | 6.4 | 0.00 | 0.00 | 0.00 | 35 | 1011.7 |
| 20260506141518 | 18 | 168 | 3.2 | 4.8 | 0.00 | 0.00 | 0.00 | 37 | 1011.9 |
| 20260506140533 | 17 | 237 | 3.2 | 6.4 | 0.00 | 0.00 | 0.00 | 37 | 1011.9 |
| 20260506135526 | 18 | 279 | 4.8 | 11.3 | 0.00 | 0.00 | 0.00 | 37 | 1012.0 |
| 20260506134521 | 19 | 246 | 6.4 | 11.3 | 0.00 | 0.00 | 0.00 | 36 | 1012.0 |
| 20260506133516 | 18 | 201 | 1.6 | 6.4 | 0.00 | 0.00 | 0.00 | 35 | 1012.1 |
| 20260506132530 | 19 | 171 | 4.8 | 9.7 | 0.00 | 0.00 | 0.00 | 34 | 1012.2 |
| 20260506131525 | 19 | 220 | 6.4 | 14.5 | 0.00 | 0.00 | 0.00 | 35 | 1012.2 |
| 20260506130518 | 18 | 176 | 6.4 | 14.5 | 0.00 | 0.00 | 0.00 | 36 | 1012.2 |
| 20260506125533 | 20 | 118 | 4.8 | 11.3 | 0.00 | 0.00 | 0.00 | 34 | 1012.3 |
| 20260506124527 | 19 | 181 | 6.4 | 12.9 | 0.00 | 0.00 | 0.00 | 35 | 1012.3 |